createdAt,value
2022-08-27T00:03:50.704Z,21.36
2022-08-27T00:07:54.473Z,21.30
2022-08-27T00:11:58.888Z,21.25
2022-08-27T00:16:02.024Z,21.18
2022-08-27T00:20:09.646Z,21.12
2022-08-27T00:24:13.966Z,21.06
2022-08-27T00:28:17.650Z,21.01
2022-08-27T00:32:22.111Z,20.98
2022-08-27T00:36:27.250Z,20.98
2022-08-27T00:40:30.721Z,20.98
2022-08-27T00:44:34.267Z,21.02
2022-08-27T00:48:38.836Z,21.04
2022-08-27T00:52:48.424Z,21.10
2022-08-27T00:56:52.206Z,21.13
2022-08-27T01:00:56.608Z,21.21
2022-08-27T01:05:05.018Z,21.28
2022-08-27T01:09:14.880Z,21.34
2022-08-27T01:13:20.645Z,21.38
2022-08-27T01:17:47.292Z,21.44
2022-08-27T01:22:00.073Z,21.50
2022-08-27T01:26:07.689Z,21.60
2022-08-27T01:30:14.773Z,21.67
2022-08-27T01:34:18.115Z,21.71
2022-08-27T01:38:30.983Z,21.75
2022-08-27T01:42:40.519Z,21.82
2022-08-27T01:46:44.730Z,21.84
2022-08-27T01:50:49.835Z,21.87
2022-08-27T01:55:04.961Z,21.89
2022-08-27T01:59:10.448Z,21.92
2022-08-27T02:03:14.847Z,21.94
2022-08-27T02:07:18.651Z,21.95
2022-08-27T02:11:22.344Z,21.96
2022-08-27T02:15:27.563Z,21.96
2022-08-27T02:19:31.198Z,21.98
2022-08-27T02:23:35.219Z,21.99
2022-08-27T02:27:39.031Z,22.02
2022-08-27T02:31:44.100Z,22.05
2022-08-27T02:35:47.447Z,22.05
2022-08-27T02:39:51.370Z,22.07
2022-08-27T02:43:55.152Z,22.07
2022-08-27T02:48:00.392Z,22.04
2022-08-27T02:52:03.945Z,22.01
2022-08-27T02:56:09.196Z,21.97
2022-08-27T03:00:16.719Z,21.95
2022-08-27T03:04:23.474Z,21.88
2022-08-27T03:08:28.453Z,21.80
2022-08-27T03:12:36.974Z,21.72
2022-08-27T03:16:40.881Z,21.65
2022-08-27T03:20:48.740Z,21.59
2022-08-27T03:24:52.257Z,21.54
2022-08-27T03:28:56.241Z,21.50
2022-08-27T03:32:59.569Z,21.45
2022-08-27T03:37:04.245Z,21.40
2022-08-27T03:41:08.432Z,21.34
2022-08-27T03:45:12.930Z,21.30
2022-08-27T03:49:16.379Z,21.26
2022-08-27T03:53:25.493Z,21.22
2022-08-27T03:57:29.350Z,21.16
2022-08-27T04:01:33.749Z,21.11
2022-08-27T04:05:37.829Z,21.10
2022-08-27T04:09:42.685Z,21.11
2022-08-27T04:13:46.375Z,21.11
2022-08-27T04:17:50.203Z,21.12
2022-08-27T04:21:54.106Z,21.15
2022-08-27T04:25:59.185Z,21.16
2022-08-27T04:30:03.929Z,21.18
2022-08-27T04:34:08.173Z,21.17
2022-08-27T04:38:11.935Z,21.15
2022-08-27T04:42:20.129Z,21.15
2022-08-27T04:46:25.269Z,21.15
2022-08-27T04:50:28.425Z,21.18
2022-08-27T04:54:33.269Z,21.23
2022-08-27T04:58:38.268Z,21.27
2022-08-27T05:02:41.526Z,21.33
2022-08-27T05:06:46.221Z,21.39
2022-08-27T05:10:52.575Z,21.45
2022-08-27T05:14:57.779Z,21.51
2022-08-27T05:19:01.484Z,21.58
2022-08-27T05:23:05.253Z,21.68
2022-08-27T05:27:09.893Z,21.76
2022-08-27T05:31:20.066Z,21.86
2022-08-27T05:39:35.360Z,22.00
2022-08-27T05:43:39.717Z,22.06
2022-08-27T05:47:44.902Z,22.18
2022-08-27T05:51:49.569Z,22.32
2022-08-27T05:55:53.387Z,22.52
2022-08-27T06:00:15.784Z,22.74
2022-08-27T06:04:22.047Z,23.03
2022-08-27T06:08:25.854Z,23.32
2022-08-27T06:12:30.218Z,23.62
2022-08-27T06:16:34.318Z,23.94
2022-08-27T06:20:39.410Z,24.21
2022-08-27T06:24:47.673Z,24.45
2022-08-27T06:28:51.230Z,24.65
2022-08-27T06:32:55.232Z,24.84
2022-08-27T06:36:59.770Z,24.98
2022-08-27T06:41:06.158Z,25.11
2022-08-27T06:45:20.394Z,25.18
2022-08-27T06:49:24.078Z,25.26
2022-08-27T06:53:29.284Z,25.35
2022-08-27T06:57:33.116Z,25.53
2022-08-27T07:01:39.340Z,25.82
2022-08-27T07:05:43.164Z,26.17
2022-08-27T07:09:47.711Z,26.55
2022-08-27T07:13:52.650Z,26.90
2022-08-27T07:17:56.358Z,27.19
2022-08-27T07:22:00.824Z,27.37
2022-08-27T07:26:08.823Z,27.48
2022-08-27T07:30:16.247Z,27.67
2022-08-27T07:34:19.982Z,27.86
2022-08-27T07:38:23.872Z,28.06
2022-08-27T07:42:46.303Z,28.37
2022-08-27T07:46:49.678Z,28.69
2022-08-27T07:50:54.322Z,28.94
2022-08-27T07:54:57.850Z,29.20
2022-08-27T07:59:02.872Z,29.48
2022-08-27T08:03:06.501Z,29.78
2022-08-27T08:07:09.721Z,30.11
2022-08-27T08:11:15.879Z,30.38
2022-08-27T08:15:21.001Z,30.56
2022-08-27T08:19:25.124Z,30.76
2022-08-27T08:23:28.895Z,30.96
2022-08-27T08:27:34.011Z,31.14
2022-08-27T08:31:39.229Z,31.38
2022-08-27T08:35:42.830Z,31.51
2022-08-27T08:39:46.408Z,31.58
2022-08-27T08:43:52.435Z,31.56
2022-08-27T08:48:05.480Z,31.54
2022-08-27T08:52:30.772Z,31.45
2022-08-27T08:56:43.349Z,31.46
2022-08-27T09:00:50.337Z,31.64
2022-08-27T09:04:56.179Z,31.94
2022-08-27T09:09:05.581Z,32.30
2022-08-27T09:13:20.544Z,32.71
2022-08-27T09:17:24.372Z,32.92
2022-08-27T09:21:43.090Z,32.95
2022-08-27T09:25:47.814Z,32.65
2022-08-27T09:29:53.227Z,32.26
2022-08-27T09:33:57.285Z,31.88
2022-08-27T09:38:05.161Z,31.61
2022-08-27T09:42:09.406Z,31.36
2022-08-27T09:46:22.306Z,31.28
2022-08-27T09:50:39.598Z,31.27
2022-08-27T09:54:48.655Z,31.36
2022-08-27T09:58:55.688Z,31.56
2022-08-27T10:03:03.726Z,31.83
2022-08-27T10:07:41.249Z,32.05
2022-08-27T10:11:54.609Z,32.15
2022-08-27T10:16:40.497Z,32.06
2022-08-27T10:20:54.122Z,32.03
2022-08-27T10:25:11.840Z,31.98
2022-08-27T10:29:33.164Z,31.86
2022-08-27T10:33:46.601Z,31.78
2022-08-27T10:38:00.111Z,31.88
2022-08-27T10:42:12.636Z,32.07
2022-08-27T10:46:50.088Z,32.34
2022-08-27T10:51:02.623Z,32.57
2022-08-27T10:55:14.051Z,32.63
2022-08-27T10:59:28.448Z,32.46
2022-08-27T11:03:39.663Z,32.42
2022-08-27T11:07:48.166Z,32.59
2022-08-27T11:12:13.807Z,32.86
2022-08-27T11:16:22.631Z,33.17
2022-08-27T11:20:32.760Z,33.43
2022-08-27T11:24:40.333Z,33.56
2022-08-27T11:28:48.954Z,33.58
2022-08-27T11:33:01.122Z,33.46
2022-08-27T11:37:14.031Z,33.32
2022-08-27T11:41:42.321Z,33.16
2022-08-27T11:45:59.151Z,33.10
2022-08-27T11:50:08.239Z,33.14
2022-08-27T11:54:33.186Z,33.10
2022-08-27T11:58:52.996Z,32.98
2022-08-27T12:03:01.371Z,32.96
2022-08-27T12:07:07.588Z,32.98
2022-08-27T12:11:28.484Z,32.97
2022-08-27T12:15:47.272Z,32.85
2022-08-27T12:20:01.784Z,32.70
2022-08-27T12:29:35.884Z,32.45
2022-08-27T12:33:45.814Z,32.54
2022-08-27T12:37:51.523Z,32.67
2022-08-27T12:42:00.440Z,32.81
2022-08-27T12:46:09.558Z,32.99
2022-08-27T12:50:14.433Z,33.16
2022-08-27T12:54:32.631Z,33.30
2022-08-27T12:58:52.161Z,33.36
2022-08-27T13:03:32.044Z,33.44
2022-08-27T13:07:43.757Z,33.47
2022-08-27T13:11:49.223Z,33.57
2022-08-27T13:15:56.290Z,33.67
2022-08-27T13:20:02.748Z,33.78
2022-08-27T13:24:08.473Z,33.87
2022-08-27T13:28:16.625Z,33.91
2022-08-27T13:32:20.346Z,33.92
2022-08-27T13:36:32.192Z,33.97
2022-08-27T13:40:39.462Z,34.07
2022-08-27T13:44:44.593Z,34.19
2022-08-27T13:48:54.595Z,34.30
2022-08-27T13:53:24.919Z,34.28
2022-08-27T13:57:33.252Z,34.10
2022-08-27T14:01:39.301Z,33.87
2022-08-27T14:05:50.093Z,33.67
2022-08-27T14:09:56.529Z,33.48
2022-08-27T14:14:02.124Z,33.27
2022-08-27T14:18:08.650Z,33.11
2022-08-27T14:26:37.118Z,32.96
2022-08-27T14:30:41.866Z,32.98
2022-08-27T14:34:46.245Z,33.04
2022-08-27T14:38:52.136Z,33.14
2022-08-27T14:42:55.465Z,33.26
2022-08-27T14:47:02.005Z,33.39
2022-08-27T14:51:23.834Z,33.58
2022-08-27T14:55:27.696Z,33.78
2022-08-27T14:59:31.184Z,33.99
2022-08-27T15:03:43.335Z,34.23
2022-08-27T15:07:47.502Z,34.46
2022-08-27T15:11:52.813Z,34.52
2022-08-27T15:15:56.027Z,34.56
2022-08-27T15:20:01.344Z,34.60
2022-08-27T15:24:07.617Z,34.66
2022-08-27T15:28:10.815Z,34.73
2022-08-27T15:32:23.785Z,34.80
2022-08-27T15:36:33.479Z,34.87
2022-08-27T15:40:37.912Z,34.94
2022-08-27T15:44:47.231Z,35.00
2022-08-27T15:48:50.948Z,34.97
2022-08-27T15:53:00.185Z,34.92
2022-08-27T15:57:03.779Z,34.81
2022-08-27T16:01:11.563Z,34.64
2022-08-27T16:05:16.865Z,34.44
2022-08-27T16:09:21.879Z,34.26
2022-08-27T16:13:27.006Z,34.05
2022-08-27T16:17:30.701Z,33.88
2022-08-27T16:21:35.916Z,33.68
2022-08-27T16:25:40.900Z,33.49
2022-08-27T16:29:44.230Z,33.32
2022-08-27T16:33:47.902Z,33.16
2022-08-27T16:37:51.810Z,33.00
2022-08-27T16:41:56.701Z,32.87
2022-08-27T16:46:01.724Z,32.66
2022-08-27T16:50:26.076Z,32.48
2022-08-27T16:54:30.065Z,32.25
2022-08-27T16:58:35.449Z,32.05
2022-08-27T17:02:39.157Z,31.83
2022-08-27T17:06:42.488Z,31.61
2022-08-27T17:10:48.445Z,31.36
2022-08-27T17:14:53.434Z,31.09
2022-08-27T17:18:58.952Z,30.77
2022-08-27T17:23:02.920Z,30.43
2022-08-27T17:27:06.432Z,30.07
2022-08-27T17:31:13.917Z,29.75
2022-08-27T17:35:19.071Z,29.42
2022-08-27T17:39:23.851Z,29.15
2022-08-27T17:43:27.267Z,28.91
2022-08-27T17:47:32.879Z,28.56
2022-08-27T17:51:36.819Z,28.05
2022-08-27T17:55:41.540Z,28.10
2022-08-27T17:59:45.694Z,27.87
2022-08-27T18:03:51.387Z,27.67
2022-08-27T18:07:57.149Z,27.46
2022-08-27T18:12:05.174Z,27.27
2022-08-27T18:16:10.418Z,27.09
2022-08-27T18:20:17.827Z,26.80
2022-08-27T18:24:21.574Z,26.58
2022-08-27T18:28:29.859Z,26.52
2022-08-27T18:32:34.264Z,26.41
2022-08-27T18:36:44.805Z,26.29
2022-08-27T18:40:52.596Z,26.19
2022-08-27T18:44:57.332Z,26.11
2022-08-27T18:49:02.197Z,26.04
2022-08-27T18:53:09.518Z,25.92
2022-08-27T18:57:16.268Z,25.90
2022-08-27T19:01:22.121Z,25.96
2022-08-27T19:05:28.446Z,25.76
2022-08-27T19:09:35.653Z,25.94
2022-08-27T19:13:40.696Z,25.87
2022-08-27T19:17:50.856Z,25.88
2022-08-27T19:21:56.175Z,25.92
2022-08-27T19:26:05.288Z,25.88
2022-08-27T19:30:13.359Z,25.82
2022-08-27T19:34:17.535Z,25.73
2022-08-27T19:38:22.051Z,25.77
2022-08-27T19:42:30.653Z,25.63
2022-08-27T19:46:37.102Z,25.50
2022-08-27T19:50:41.143Z,25.40
2022-08-27T19:54:57.229Z,25.22
2022-08-27T19:59:20.590Z,25.18
2022-08-27T20:03:24.935Z,25.14
2022-08-27T20:07:30.744Z,25.03
2022-08-27T20:11:40.017Z,25.02
2022-08-27T20:15:47.038Z,24.76
2022-08-27T20:19:51.793Z,24.45
2022-08-27T20:23:56.084Z,23.86
2022-08-27T20:28:12.275Z,23.85
2022-08-27T20:32:39.084Z,23.60
2022-08-27T20:36:43.295Z,23.41
2022-08-27T20:40:48.770Z,23.17
2022-08-27T20:44:53.510Z,22.65
2022-08-27T20:48:59.336Z,22.73
2022-08-27T20:53:03.542Z,22.50
2022-08-27T20:57:08.792Z,22.39
2022-08-27T21:01:13.273Z,21.73
2022-08-27T21:05:21.232Z,22.07
2022-08-27T21:09:24.902Z,22.01
2022-08-27T21:13:32.315Z,21.99
2022-08-27T21:17:37.346Z,21.85
2022-08-27T21:21:43.946Z,21.98
2022-08-27T21:25:48.077Z,21.94
2022-08-27T21:29:52.658Z,21.92
2022-08-27T21:33:57.022Z,21.63
2022-08-27T21:38:02.906Z,21.76
2022-08-27T21:42:07.721Z,21.76
2022-08-27T21:46:11.383Z,21.58
2022-08-27T21:50:15.845Z,21.76
2022-08-27T21:54:26.145Z,21.76
2022-08-27T21:58:31.441Z,21.79
2022-08-27T22:02:40.374Z,21.77
2022-08-27T22:06:45.054Z,21.76
2022-08-27T22:10:53.770Z,21.67
2022-08-27T22:14:57.239Z,21.80
2022-08-27T22:19:03.519Z,21.85
2022-08-27T22:23:09.215Z,21.75
2022-08-27T22:27:17.453Z,21.88
2022-08-27T22:31:22.187Z,22.06
2022-08-27T22:35:26.325Z,22.13
2022-08-27T22:39:34.856Z,22.15
2022-08-27T22:43:40.601Z,22.12
2022-08-27T22:47:45.274Z,22.13
2022-08-27T22:51:50.624Z,22.14
2022-08-27T22:55:55.102Z,22.16
2022-08-27T23:00:02.812Z,21.94
2022-08-27T23:04:08.757Z,22.20
2022-08-27T23:08:17.858Z,22.22
2022-08-27T23:12:22.327Z,22.22
2022-08-27T23:16:28.317Z,22.24
2022-08-27T23:20:33.223Z,22.16
2022-08-27T23:24:58.864Z,21.99
2022-08-27T23:29:02.791Z,22.16
2022-08-27T23:33:08.769Z,22.13
2022-08-27T23:37:12.568Z,22.09
2022-08-27T23:41:20.907Z,22.02
2022-08-27T23:45:28.283Z,22.03
2022-08-27T23:49:34.212Z,21.98
2022-08-27T23:57:40.371Z,21.94
